Time;durP1;ratioP1;P1;durP2;ratioP2;P2;SDS_P1;SDS_P2;PMS_P1;PMS_P2;Temp;Humidity;BMP_temperature;BMP_pressure;BME280_temperature;BME280_humidity;BME280_pressure;Samples;Min_cycle;Max_cycle;Signal;HPM_P1;HPM_P2
2021/10/16 00:01:35;;;;;;;6.90;2.38;;;9.30;95.30;;;;;;4788450;29;20570;-86
2021/10/16 00:04:01;;;;;;;5.95;2.10;;;9.30;95.40;;;;;;4789686;29;20490;-87
2021/10/16 00:06:26;;;;;;;9.88;2.10;;;9.30;95.40;;;;;;4789984;29;20039;-86
2021/10/16 00:08:52;;;;;;;9.40;2.30;;;9.30;95.40;;;;;;4789675;29;20064;-86
2021/10/16 00:11:17;;;;;;;6.93;2.15;;;9.20;95.40;;;;;;4789864;29;20062;-86
2021/10/16 00:13:43;;;;;;;7.25;2.28;;;9.20;95.40;;;;;;4789722;29;20054;-86
2021/10/16 00:16:09;;;;;;;8.55;2.47;;;9.20;95.40;;;;;;4789900;29;20047;-86
2021/10/16 00:18:35;;;;;;;6.47;2.10;;;9.20;95.40;;;;;;4789494;29;20046;-85
2021/10/16 00:21:02;;;;;;;7.40;2.00;;;9.20;95.40;;;;;;4789745;29;20468;-85
2021/10/16 00:23:29;;;;;;;8.85;2.10;;;9.10;95.30;;;;;;4789973;29;20050;-86
2021/10/16 00:25:54;;;;;;;6.47;1.95;;;9.10;95.30;;;;;;4789614;29;20137;-85
2021/10/16 00:28:20;;;;;;;7.30;1.92;;;9.10;95.30;;;;;;4789140;29;20121;-85
2021/10/16 00:30:46;;;;;;;4.97;1.60;;;9.10;95.10;;;;;;4804385;29;20120;-85
2021/10/16 00:33:13;;;;;;;7.05;1.90;;;9.00;95.00;;;;;;4789561;29;20134;-85
2021/10/16 00:35:39;;;;;;;5.57;1.85;;;9.00;94.90;;;;;;4788892;29;20100;-87
2021/10/16 00:38:05;;;;;;;6.32;1.75;;;9.00;95.00;;;;;;4789982;29;20055;-86
2021/10/16 00:40:30;;;;;;;7.88;1.67;;;8.90;95.20;;;;;;4790194;29;20051;-86
2021/10/16 00:42:56;;;;;;;7.45;2.08;;;8.90;95.20;;;;;;4789650;29;20066;-86
2021/10/16 00:45:24;;;;;;;6.55;1.77;;;8.90;95.20;;;;;;4790573;29;20485;-86
2021/10/16 00:47:51;;;;;;;6.35;1.67;;;8.80;95.30;;;;;;4794132;29;20141;-86
2021/10/16 00:50:18;;;;;;;5.93;1.90;;;8.80;95.40;;;;;;4792619;29;20062;-86
2021/10/16 00:52:57;;;;;;;6.43;1.58;;;8.80;95.50;;;;;;4793134;29;20071;-87
2021/10/16 00:55:24;;;;;;;6.85;1.70;;;8.70;95.40;;;;;;4793004;29;20093;-86
2021/10/16 00:57:59;;;;;;;5.47;1.60;;;8.70;95.30;;;;;;4808830;29;20450;-86
2021/10/16 01:00:29;;;;;;;5.78;1.58;;;8.70;95.50;;;;;;4809352;29;20188;-86
2021/10/16 01:02:58;;;;;;;7.88;1.58;;;8.70;95.50;;;;;;4792523;29;20091;-85
2021/10/16 01:05:23;;;;;;;4.80;1.60;;;8.70;95.30;;;;;;4791815;29;20047;-86
2021/10/16 01:07:49;;;;;;;6.38;1.60;;;8.60;95.20;;;;;;4792801;29;20046;-85
2021/10/16 01:10:14;;;;;;;5.32;1.60;;;8.60;95.20;;;;;;4792062;29;20127;-85
2021/10/16 01:12:43;;;;;;;6.00;1.75;;;8.60;95.30;;;;;;4793115;29;20059;-87
2021/10/16 01:15:12;;;;;;;6.13;1.70;;;8.50;95.40;;;;;;4792821;29;20180;-87
2021/10/16 01:17:39;;;;;;;6.00;1.75;;;8.50;95.40;;;;;;4791962;29;20096;-86
2021/10/16 01:20:10;;;;;;;8.57;1.55;;;8.50;95.80;;;;;;4791979;29;20058;-86
2021/10/16 01:22:41;;;;;;;5.78;1.50;;;8.50;95.60;;;;;;4793131;29;20058;-86
2021/10/16 01:25:11;;;;;;;8.32;1.60;;;8.40;95.60;;;;;;4791947;29;20400;-86
2021/10/16 01:27:38;;;;;;;5.38;1.55;;;8.40;95.70;;;;;;4791821;29;20043;-86
2021/10/16 01:30:06;;;;;;;6.63;1.40;;;8.40;95.70;;;;;;4792479;29;20055;-86
2021/10/16 01:32:34;;;;;;;4.65;1.58;;;8.40;95.60;;;;;;4791690;29;20051;-86
2021/10/16 01:35:00;;;;;;;4.63;1.50;;;8.40;95.70;;;;;;4792361;29;20043;-86
2021/10/16 01:37:25;;;;;;;5.65;1.50;;;8.40;95.70;;;;;;4792244;29;20043;-86
2021/10/16 01:39:51;;;;;;;5.90;1.25;;;8.30;95.70;;;;;;4791920;29;20466;-86
2021/10/16 01:42:17;;;;;;;4.50;1.48;;;8.30;95.60;;;;;;4793252;29;20051;-87
2021/10/16 01:44:42;;;;;;;8.40;1.95;;;8.30;95.70;;;;;;4792264;29;20039;-86
2021/10/16 01:47:08;;;;;;;4.25;1.35;;;8.30;95.70;;;;;;4791081;29;20078;-86
2021/10/16 01:49:36;;;;;;;4.25;1.40;;;8.30;95.80;;;;;;4792411;29;20070;-86
2021/10/16 01:52:02;;;;;;;6.10;1.70;;;8.30;95.80;;;;;;4792582;29;20500;-86
2021/10/16 01:54:28;;;;;;;5.72;1.25;;;8.30;95.80;;;;;;4791965;29;20402;-86
2021/10/16 01:56:54;;;;;;;6.22;1.60;;;8.30;95.70;;;;;;4792768;29;20050;-85
2021/10/16 01:59:22;;;;;;;7.13;1.50;;;8.30;95.60;;;;;;4790910;29;20071;-86
2021/10/16 02:01:52;;;;;;;7.53;1.50;;;8.30;95.50;;;;;;4791958;29;20137;-85
2021/10/16 02:04:18;;;;;;;5.93;1.80;;;8.30;95.60;;;;;;4777908;29;20043;-86
2021/10/16 02:06:43;;;;;;;5.95;1.52;;;8.30;95.60;;;;;;4791079;29;20517;-85
2021/10/16 02:11:35;;;;;;;6.53;1.70;;;8.30;95.70;;;;;;5121671;24;20572;-83
2021/10/16 02:14:01;;;;;;;7.63;1.50;;;8.30;95.70;;;;;;4791251;29;20054;-83
2021/10/16 02:16:28;;;;;;;5.78;1.60;;;8.30;95.60;;;;;;4791614;29;20046;-83
2021/10/16 02:18:54;;;;;;;4.97;1.70;;;8.30;95.70;;;;;;4792161;29;20133;-85
2021/10/16 02:21:21;;;;;;;6.38;1.60;;;8.30;95.60;;;;;;4791467;29;20563;-85
2021/10/16 02:23:46;;;;;;;5.35;1.23;;;8.30;95.70;;;;;;4791913;29;20063;-86
2021/10/16 02:26:15;;;;;;;6.78;1.88;;;8.30;95.60;;;;;;4791817;29;20047;-85
2021/10/16 02:28:41;;;;;;;6.75;1.90;;;8.30;95.60;;;;;;4790930;29;20051;-85
2021/10/16 02:31:06;;;;;;;6.22;1.50;;;8.30;95.50;;;;;;4791550;29;20120;-85
2021/10/16 02:33:32;;;;;;;6.75;1.60;;;8.30;95.60;;;;;;4790904;29;20062;-85
2021/10/16 02:35:57;;;;;;;5.78;1.58;;;8.30;95.60;;;;;;4790843;29;20573;-85
2021/10/16 02:38:23;;;;;;;6.40;1.73;;;8.30;95.60;;;;;;4791558;29;20134;-85
2021/10/16 02:40:49;;;;;;;6.10;1.77;;;8.40;95.60;;;;;;4790979;29;20039;-85
2021/10/16 02:43:14;;;;;;;6.47;1.80;;;8.40;95.60;;;;;;4790968;29;20042;-86
2021/10/16 02:45:40;;;;;;;5.22;1.50;;;8.40;95.70;;;;;;4791980;29;20093;-85
2021/10/16 02:48:05;;;;;;;6.03;1.60;;;8.40;95.50;;;;;;4791665;29;20053;-85
2021/10/16 02:50:33;;;;;;;6.28;1.40;;;8.40;95.50;;;;;;4790870;29;20043;-85
2021/10/16 02:52:59;;;;;;;4.53;1.92;;;8.40;95.40;;;;;;4791296;29;20417;-85
2021/10/16 02:55:25;;;;;;;5.50;1.40;;;8.40;95.40;;;;;;4791212;29;20055;-85
2021/10/16 02:57:51;;;;;;;4.45;1.40;;;8.40;95.40;;;;;;4790040;29;20114;-85
2021/10/16 03:00:16;;;;;;;6.03;1.33;;;8.40;95.40;;;;;;4791481;29;20123;-85
2021/10/16 03:02:42;;;;;;;6.60;1.60;;;8.50;95.40;;;;;;4789871;29;20046;-85
2021/10/16 03:05:08;;;;;;;5.93;1.65;;;8.50;95.40;;;;;;4791223;29;20047;-85
2021/10/16 03:07:36;;;;;;;4.30;1.55;;;8.50;95.40;;;;;;4791564;29;20493;-86
2021/10/16 03:10:03;;;;;;;7.03;1.75;;;8.40;95.40;;;;;;4777522;29;20514;-86
2021/10/16 03:12:28;;;;;;;4.97;1.60;;;8.40;95.30;;;;;;4790907;29;20058;-86
2021/10/16 03:14:54;;;;;;;6.07;1.70;;;8.40;95.30;;;;;;4791691;29;20042;-86
2021/10/16 03:17:20;;;;;;;3.75;1.50;;;8.50;95.40;;;;;;4791165;29;20046;-86
2021/10/16 03:19:45;;;;;;;6.85;1.65;;;8.50;95.40;;;;;;4791189;29;20057;-86
2021/10/16 03:22:11;;;;;;;3.97;1.42;;;8.40;95.30;;;;;;4791800;29;20047;-86
2021/10/16 03:24:38;;;;;;;4.35;1.48;;;8.50;95.30;;;;;;4790675;29;20038;-86
2021/10/16 03:27:04;;;;;;;6.93;1.63;;;8.40;95.30;;;;;;4791760;29;20091;-86
2021/10/16 03:29:31;;;;;;;5.85;1.27;;;8.40;95.30;;;;;;4790255;29;20050;-86
2021/10/16 03:31:57;;;;;;;4.30;1.35;;;8.40;95.30;;;;;;4790519;29;20420;-87
2021/10/16 03:34:23;;;;;;;4.90;1.52;;;8.50;95.30;;;;;;4791095;29;20047;-86
2021/10/16 03:36:48;;;;;;;6.20;1.60;;;8.50;95.20;;;;;;4790535;29;20050;-87
2021/10/16 03:39:14;;;;;;;5.10;1.60;;;8.50;95.10;;;;;;4790273;29;20047;-86
2021/10/16 03:41:40;;;;;;;5.72;1.65;;;8.50;95.10;;;;;;4790665;29;20061;-86
2021/10/16 03:44:05;;;;;;;6.85;1.60;;;8.50;95.20;;;;;;4790722;29;20066;-86
2021/10/16 03:46:31;;;;;;;6.63;1.45;;;8.50;95.20;;;;;;4790045;29;20043;-85
2021/10/16 03:48:57;;;;;;;4.60;1.55;;;8.50;95.20;;;;;;4790231;29;20054;-86
2021/10/16 03:51:22;;;;;;;4.35;1.20;;;8.50;95.30;;;;;;4790713;29;20055;-86
2021/10/16 03:53:48;;;;;;;7.45;1.90;;;8.50;95.30;;;;;;4790424;29;20043;-86
2021/10/16 03:56:14;;;;;;;5.68;1.83;;;8.50;95.30;;;;;;4790908;29;20080;-85
2021/10/16 04:02:46;;;;;;;6.25;1.38;;;8.60;95.20;;;;;;4806700;29;20048;-86
2021/10/16 04:05:13;;;;;;;4.63;1.40;;;8.60;95.10;;;;;;4790278;29;20058;-86
2021/10/16 04:07:39;;;;;;;4.22;1.60;;;8.60;95.00;;;;;;4789723;29;20447;-86
2021/10/16 04:10:05;;;;;;;4.80;1.45;;;8.60;95.10;;;;;;4790830;29;20057;-86
2021/10/16 04:12:31;;;;;;;4.10;1.27;;;8.60;95.00;;;;;;4790786;29;20046;-86
2021/10/16 04:14:56;;;;;;;5.75;1.80;;;8.60;95.00;;;;;;4789645;29;20104;-86
2021/10/16 04:17:22;;;;;;;4.95;1.52;;;8.60;95.00;;;;;;4790491;29;20442;-86
2021/10/16 04:19:47;;;;;;;4.15;1.20;;;8.60;94.90;;;;;;4790113;29;20500;-87
2021/10/16 04:22:13;;;;;;;5.80;1.40;;;8.60;95.00;;;;;;4788696;29;20476;-86
2021/10/16 04:24:41;;;;;;;5.57;1.50;;;8.60;95.10;;;;;;4789873;29;20082;-85
2021/10/16 04:27:07;;;;;;;3.63;1.17;;;8.60;95.10;;;;;;4788629;29;20089;-86
2021/10/16 04:29:33;;;;;;;4.50;1.50;;;8.70;95.20;;;;;;4789830;29;20041;-86
2021/10/16 04:31:59;;;;;;;3.88;1.30;;;8.60;95.20;;;;;;4789694;29;20113;-87
2021/10/16 04:34:25;;;;;;;3.80;1.30;;;8.60;95.20;;;;;;4789189;29;20058;-86
2021/10/16 04:36:53;;;;;;;4.85;1.25;;;8.70;95.20;;;;;;4789359;29;20420;-86
2021/10/16 04:39:18;;;;;;;4.10;1.17;;;8.70;95.30;;;;;;4789521;29;20042;-86
2021/10/16 04:41:44;;;;;;;5.07;1.40;;;8.70;95.20;;;;;;4788142;29;20038;-85
2021/10/16 04:44:10;;;;;;;4.15;1.30;;;8.70;95.10;;;;;;4790143;29;20510;-86
2021/10/16 04:46:37;;;;;;;5.55;1.30;;;8.70;95.00;;;;;;4790123;29;20085;-86
2021/10/16 04:49:04;;;;;;;5.05;1.25;;;8.70;95.00;;;;;;4788910;29;20141;-85
2021/10/16 04:51:30;;;;;;;3.35;1.30;;;8.70;95.00;;;;;;4778162;29;20051;-86
2021/10/16 04:53:56;;;;;;;5.15;1.10;;;8.70;94.90;;;;;;4789383;29;20122;-85
2021/10/16 04:56:21;;;;;;;5.40;1.40;;;8.70;94.90;;;;;;4788837;29;20134;-85
2021/10/16 04:58:47;;;;;;;4.80;1.25;;;8.70;94.90;;;;;;4788830;29;20104;-85
2021/10/16 05:01:12;;;;;;;3.33;1.20;;;8.70;94.90;;;;;;4789234;29;20067;-86
2021/10/16 05:03:38;;;;;;;5.88;1.25;;;8.70;94.90;;;;;;4782961;29;20467;-85
2021/10/16 05:06:04;;;;;;;5.65;1.15;;;8.70;94.90;;;;;;4790623;29;20055;-86
2021/10/16 05:08:30;;;;;;;6.50;1.58;;;8.70;94.90;;;;;;4789862;29;20124;-86
2021/10/16 05:10:56;;;;;;;4.38;1.08;;;8.70;94.90;;;;;;4789601;29;20059;-86
2021/10/16 05:13:22;;;;;;;7.07;1.95;;;8.70;94.80;;;;;;4789711;29;20085;-86
2021/10/16 05:15:48;;;;;;;4.45;1.30;;;8.70;94.90;;;;;;4790003;29;20475;-85
2021/10/16 05:18:13;;;;;;;6.85;1.60;;;8.80;95.00;;;;;;4788503;29;20054;-86
2021/10/16 05:20:39;;;;;;;6.07;1.80;;;8.70;94.90;;;;;;4789860;29;20078;-85
2021/10/16 05:23:04;;;;;;;6.18;1.20;;;8.80;95.00;;;;;;4790278;29;20062;-85
2021/10/16 05:31:45;;;;;;;3.97;1.45;;;8.70;94.90;;;;;;5096540;24;20074;-84
2021/10/16 05:34:11;;;;;;;5.80;1.38;;;8.70;94.80;;;;;;4810152;29;20050;-84
2021/10/16 05:36:37;;;;;;;4.70;1.10;;;8.80;94.90;;;;;;4810419;29;20103;-84
2021/10/16 05:39:02;;;;;;;5.40;1.42;;;8.80;94.90;;;;;;4810195;29;20076;-84
2021/10/16 05:41:28;;;;;;;5.57;1.40;;;8.80;94.90;;;;;;4808301;29;20058;-84
2021/10/16 05:43:53;;;;;;;4.53;1.35;;;8.80;94.80;;;;;;4792822;29;20054;-85
2021/10/16 05:46:19;;;;;;;5.93;1.33;;;8.80;94.80;;;;;;4800263;29;20058;-85
2021/10/16 05:48:44;;;;;;;6.25;1.60;;;8.80;94.80;;;;;;4810720;29;20042;-84
2021/10/16 05:51:13;;;;;;;8.50;1.90;;;8.80;94.90;;;;;;4810840;29;20078;-85
2021/10/16 05:53:38;;;;;;;11.68;2.15;;;8.80;94.90;;;;;;4810047;29;20099;-84
2021/10/16 05:56:04;;;;;;;9.30;2.38;;;8.90;95.10;;;;;;4808439;29;20050;-85
2021/10/16 05:58:29;;;;;;;9.70;2.10;;;8.90;95.10;;;;;;4809878;29;20454;-85
2021/10/16 06:00:55;;;;;;;4.28;1.20;;;8.90;95.10;;;;;;4803610;29;20046;-85
2021/10/16 06:03:21;;;;;;;9.35;2.00;;;8.80;95.00;;;;;;4793031;29;20043;-85
2021/10/16 06:05:47;;;;;;;8.88;2.22;;;8.90;95.10;;;;;;4791933;29;20060;-85
2021/10/16 06:08:12;;;;;;;7.28;1.52;;;8.90;95.10;;;;;;4797651;29;20054;-85
2021/10/16 06:10:38;;;;;;;6.03;1.50;;;8.90;95.00;;;;;;4798150;29;20054;-85
2021/10/16 06:13:04;;;;;;;6.18;1.70;;;8.90;95.00;;;;;;4795182;29;20045;-85
2021/10/16 06:26:12;;;;;;;6.15;1.42;;;8.80;94.70;;;;;;4749532;30;20052;-84
2021/10/16 06:28:38;;;;;;;6.38;1.45;;;8.80;94.70;;;;;;4750168;30;20481;-84
2021/10/16 06:31:06;;;;;;;6.78;1.80;;;8.80;94.60;;;;;;4738167;30;20864;-85
2021/10/16 06:33:35;;;;;;;5.50;1.40;;;8.90;94.80;;;;;;4738733;30;20591;-85
2021/10/16 06:36:18;;;;;;;5.22;1.30;;;8.90;94.80;;;;;;4754794;30;20048;-87
2021/10/16 06:38:44;;;;;;;8.35;1.60;;;8.90;94.80;;;;;;4755629;29;20401;-85
2021/10/16 06:41:12;;;;;;;4.13;1.00;;;8.90;94.90;;;;;;4810170;29;20046;-85
2021/10/16 06:43:41;;;;;;;4.82;1.40;;;8.90;94.80;;;;;;4791681;29;20141;-85
2021/10/16 06:50:17;;;;;;;8.98;1.48;;;8.90;94.60;;;;;;4867147;24;20062;-85
2021/10/16 06:52:48;;;;;;;8.63;1.90;;;8.90;94.80;;;;;;4820678;29;20046;-88
2021/10/16 06:55:14;;;;;;;7.80;1.83;;;8.90;94.80;;;;;;4790732;29;20386;-86
2021/10/16 06:57:48;;;;;;;7.00;1.95;;;9.00;94.90;;;;;;4790982;29;20054;-85
2021/10/16 07:11:04;;;;;;;7.95;1.80;;;9.00;94.90;;;;;;4789352;29;20066;-86
2021/10/16 07:16:38;;;;;;;;;;;9.10;94.80;;;;;;4789311;29;20119;-86
2021/10/16 07:20:06;;;;;;;6.65;1.52;;;9.00;94.40;;;;;;4791618;29;19929;-84
2021/10/16 07:23:05;;;;;;;5.15;1.40;;;9.00;94.70;;;;;;4785001;29;20050;-84
2021/10/16 07:25:56;;;;;;;6.70;1.65;;;9.00;94.70;;;;;;4821182;29;20418;-86
2021/10/16 07:36:08;;;;;;;5.38;1.50;;;9.10;94.90;;;;;;4802377;29;20053;-84
2021/10/16 07:47:01;;;;;;;;;;;9.10;94.70;;;;;;4657720;30;20141;-84
2021/10/16 07:54:12;;;;;;;7.25;1.90;;;9.10;94.50;;;;;;4654795;30;20112;-84
2021/10/16 07:57:01;;;;;;;10.48;4.25;;;9.10;94.50;;;;;;4639183;30;20124;-85
2021/10/16 08:02:49;;;;;;;6.78;1.70;;;9.20;94.80;;;;;;4648074;30;20063;-85
2021/10/16 08:05:29;;;;;;;15.55;2.67;;;9.20;94.70;;;;;;4696062;30;20061;-85
2021/10/16 08:08:28;;;;;;;6.55;1.80;;;9.30;94.90;;;;;;4731522;30;20503;-85
2021/10/16 08:11:39;;;;;;;7.00;2.03;;;9.30;94.80;;;;;;4713379;30;20076;-85
2021/10/16 08:33:44;;;;;;;;;;;;;;;;;;;;;
2021/10/16 08:51:00;;;;;;;13.70;3.08;;;9.80;94.70;;;;;;4681799;30;19956;-85
2021/10/16 08:54:12;;;;;;;8.95;2.22;;;9.80;94.70;;;;;;4689006;30;20473;-86
2021/10/16 09:01:37;;;;;;;10.27;2.20;;;9.90;94.60;;;;;;4671732;30;20059;-85
2021/10/16 09:19:04;;;;;;;10.65;2.83;;;10.10;94.60;;;;;;4689924;30;20045;-85
2021/10/16 09:26:06;;;;;;;;;;;;;;;;;;;;;
2021/10/16 09:59:44;;;;;;;10.50;2.75;;;10.60;94.50;;;;;;4548515;31;20380;-85
2021/10/16 10:42:45;;;;;;;10.18;4.00;;;11.10;94.40;;;;;;4999776;24;20401;-86
2021/10/16 10:45:27;;;;;;;16.65;3.40;;;11.20;94.50;;;;;;4785338;30;20050;-87
2021/10/16 10:48:05;;;;;;;13.00;3.88;;;11.30;94.30;;;;;;4774766;29;20051;-87
2021/10/16 10:50:50;;;;;;;12.15;4.00;;;11.30;94.30;;;;;;4785145;29;20138;-88
2021/10/16 10:53:28;;;;;;;10.90;3.63;;;11.40;94.20;;;;;;4793413;29;20586;-90
2021/10/16 10:56:02;;;;;;;11.95;3.22;;;11.40;94.00;;;;;;4792177;29;20046;-92
2021/10/16 10:58:50;;;;;;;9.88;2.75;;;11.40;93.80;;;;;;4792344;29;20061;-87
2021/10/16 13:43:08;;;;;;;;;;;;;;;;;;;;;
2021/10/16 13:52:47;;;;;;;12.13;2.20;;;12.50;90.90;;;;;;4789901;29;20195;-85
2021/10/16 13:55:13;;;;;;;13.13;3.10;;;12.60;91.20;;;;;;4792082;29;20138;-85
2021/10/16 14:09:25;;;;;;;14.65;2.72;;;12.60;90.70;;;;;;4711394;30;20061;-85
2021/10/16 14:23:08;;;;;;;16.38;3.28;;;12.60;91.30;;;;;;4748280;30;20151;-85
2021/10/16 14:30:33;;;;;;;13.10;3.40;;;12.60;91.60;;;;;;4713796;30;20089;-86
2021/10/16 14:36:47;;;;;;;19.20;3.28;;;12.70;91.10;;;;;;4752271;30;20553;-86
2021/10/16 15:46:35;;;;;;;16.45;3.13;;;12.60;91.90;;;;;;4822799;29;20419;-86
2021/10/16 15:49:04;;;;;;;11.48;2.72;;;12.60;92.00;;;;;;4808014;29;20149;-86
2021/10/16 15:51:39;;;;;;;7.25;2.50;;;12.60;92.30;;;;;;4807926;29;20051;-85
2021/10/16 15:54:36;;;;;;;9.35;2.50;;;12.60;92.60;;;;;;4809262;29;20061;-86
2021/10/16 15:57:08;;;;;;;13.43;2.80;;;12.60;92.70;;;;;;4761644;30;20513;-88
2021/10/16 15:59:49;;;;;;;10.18;3.13;;;12.60;93.10;;;;;;4755067;30;20067;-85
2021/10/16 16:14:28;;;;;;;18.55;3.47;;;12.60;92.60;;;;;;4790012;29;20062;-87
2021/10/16 16:21:08;;;;;;;12.82;3.13;;;12.50;92.80;;;;;;4791206;29;20134;-89
2021/10/16 16:23:33;;;;;;;14.70;3.33;;;12.40;93.00;;;;;;4775921;29;20082;-91
2021/10/16 16:58:31;;;;;;;12.13;2.92;;;12.40;92.80;;;;;;5703123;24;20525;-89
2021/10/16 17:00:59;;;;;;;11.27;3.00;;;12.40;93.00;;;;;;4799807;29;20050;-91
2021/10/16 17:03:37;;;;;;;12.77;3.50;;;12.30;93.10;;;;;;4806176;29;20491;-90
2021/10/16 17:06:23;;;;;;;11.95;3.58;;;12.40;93.00;;;;;;4801609;29;20081;-88
2021/10/16 17:08:49;;;;;;;10.35;3.13;;;12.30;93.10;;;;;;4800186;29;20145;-89
2021/10/16 17:11:15;;;;;;;12.75;3.00;;;12.30;93.20;;;;;;4798884;29;20125;-89
2021/10/16 17:13:40;;;;;;;13.90;3.92;;;12.30;93.20;;;;;;4808243;29;20058;-89
2021/10/16 17:16:06;;;;;;;16.02;4.78;;;12.30;93.10;;;;;;4818074;29;20050;-88
2021/10/16 17:18:31;;;;;;;11.93;3.10;;;12.30;93.00;;;;;;4803339;29;20400;-90
2021/10/16 17:21:12;;;;;;;23.88;6.38;;;12.30;93.00;;;;;;4795945;29;20561;-89
2021/10/16 17:24:27;;;;;;;15.15;3.85;;;12.20;92.80;;;;;;4791687;29;20104;-86
2021/10/16 17:26:55;;;;;;;22.25;3.83;;;12.20;92.40;;;;;;4816481;29;20069;-85
2021/10/16 17:29:38;;;;;;;10.20;2.97;;;12.20;92.70;;;;;;4787753;29;20460;-84
2021/10/16 17:33:01;;;;;;;16.23;3.65;;;12.10;92.80;;;;;;4804299;29;20130;-86
2021/10/16 17:47:05;;;;;;;16.33;3.17;;;12.00;92.40;;;;;;4736842;30;20056;-85
2021/10/16 17:49:31;;;;;;;15.00;4.18;;;11.90;92.50;;;;;;4733848;30;20127;-86
2021/10/16 17:52:02;;;;;;;18.45;4.97;;;11.90;92.60;;;;;;4738118;30;20133;-85
2021/10/16 18:06:38;;;;;;;15.15;3.15;;;11.80;92.90;;;;;;4743889;30;20049;-85
2021/10/16 18:09:05;;;;;;;13.88;3.30;;;11.80;92.60;;;;;;4733359;29;20074;-85
2021/10/16 18:11:33;;;;;;;12.65;2.95;;;11.80;92.70;;;;;;4779345;29;20497;-86
2021/10/16 18:14:05;;;;;;;13.65;2.97;;;11.80;92.90;;;;;;4791021;29;20062;-86
2021/10/16 18:16:30;;;;;;;15.10;3.75;;;11.80;92.90;;;;;;4787299;30;20047;-86
2021/10/16 18:18:56;;;;;;;15.70;3.40;;;11.80;92.90;;;;;;4773949;29;20115;-86
2021/10/16 18:21:23;;;;;;;15.77;3.15;;;11.80;92.90;;;;;;4779823;29;20437;-85
2021/10/16 18:23:48;;;;;;;14.05;3.10;;;11.80;92.70;;;;;;4774943;30;20047;-85
2021/10/16 18:26:14;;;;;;;14.48;3.33;;;11.80;92.80;;;;;;4775690;29;20043;-89
2021/10/16 18:28:40;;;;;;;11.57;3.28;;;11.80;92.60;;;;;;4779277;29;20043;-89
2021/10/16 18:31:06;;;;;;;13.93;3.65;;;11.70;92.80;;;;;;4791470;29;20508;-90
2021/10/16 18:33:31;;;;;;;13.30;3.33;;;11.70;93.20;;;;;;4790105;29;20043;-89
2021/10/16 18:35:57;;;;;;;16.98;3.78;;;11.70;92.70;;;;;;4789189;29;20043;-92
2021/10/16 18:38:23;;;;;;;14.50;3.97;;;11.70;92.50;;;;;;4777775;29;20050;-89
2021/10/16 18:41:20;;;;;;;13.52;3.90;;;11.70;92.50;;;;;;4787726;29;20048;-91
2021/10/16 18:44:57;;;;;;;17.88;7.70;;;11.70;92.60;;;;;;4778775;29;20073;-91
2021/10/16 18:47:23;;;;;;;14.20;4.38;;;11.60;92.30;;;;;;4773873;30;20459;-85
2021/10/16 18:49:50;;;;;;;18.42;4.60;;;11.60;92.60;;;;;;4778867;29;20049;-82
2021/10/16 18:52:15;;;;;;;13.75;3.80;;;11.60;92.50;;;;;;4787067;29;20102;-86
2021/10/16 18:54:41;;;;;;;14.73;3.63;;;11.60;92.60;;;;;;4791236;29;20047;-86
2021/10/16 18:57:07;;;;;;;13.32;3.50;;;11.60;92.40;;;;;;4778329;29;20065;-85
2021/10/16 18:59:33;;;;;;;11.70;3.35;;;11.60;92.20;;;;;;4795405;29;20061;-86
2021/10/16 19:01:59;;;;;;;11.43;3.50;;;11.50;92.10;;;;;;4803491;29;20054;-85
2021/10/16 19:04:39;;;;;;;19.23;3.80;;;11.50;92.30;;;;;;4799469;29;20484;-85
2021/10/16 19:07:05;;;;;;;16.83;3.90;;;11.50;92.00;;;;;;4798291;29;20395;-85
2021/10/16 19:09:31;;;;;;;16.83;3.35;;;11.50;91.90;;;;;;4792064;29;20043;-86
2021/10/16 19:11:59;;;;;;;15.95;3.70;;;11.40;91.80;;;;;;4804600;29;20055;-84
2021/10/16 19:14:25;;;;;;;12.38;3.80;;;11.50;92.20;;;;;;4791215;29;20507;-84
2021/10/16 19:16:50;;;;;;;13.32;3.30;;;11.50;92.20;;;;;;4791641;29;20176;-84
2021/10/16 19:19:19;;;;;;;15.35;4.20;;;11.50;92.30;;;;;;4792838;29;20055;-84
2021/10/16 19:21:47;;;;;;;10.52;3.42;;;11.50;92.20;;;;;;4811597;29;20047;-84
2021/10/16 19:24:13;;;;;;;16.50;4.25;;;11.50;92.20;;;;;;4801258;29;20552;-85
2021/10/16 19:26:39;;;;;;;17.05;3.70;;;11.50;92.10;;;;;;4810125;29;20133;-85
2021/10/16 19:29:04;;;;;;;13.10;3.92;;;11.50;92.30;;;;;;4794527;29;20042;-85
2021/10/16 19:31:30;;;;;;;12.60;4.07;;;11.40;92.30;;;;;;4806543;29;20564;-85
2021/10/16 19:33:57;;;;;;;14.30;3.97;;;11.40;92.50;;;;;;4798273;29;20090;-86
2021/10/16 19:36:23;;;;;;;15.45;4.10;;;11.40;92.50;;;;;;4793225;29;20046;-84
2021/10/16 19:38:52;;;;;;;11.90;3.05;;;11.40;92.30;;;;;;4801661;29;20506;-85
2021/10/16 19:41:17;;;;;;;19.50;5.72;;;11.40;92.30;;;;;;4791246;29;20407;-83
2021/10/16 19:46:08;;;;;;;12.05;4.05;;;11.40;92.40;;;;;;4810888;24;20134;-84
2021/10/16 19:48:34;;;;;;;15.20;4.95;;;11.40;92.60;;;;;;4788121;29;20058;-83
2021/10/16 19:51:01;;;;;;;13.27;3.95;;;11.40;92.30;;;;;;4790539;29;20455;-83
2021/10/16 19:53:26;;;;;;;11.40;3.55;;;11.40;92.50;;;;;;4789409;29;20109;-82
2021/10/16 19:56:08;;;;;;;16.90;4.10;;;11.40;92.60;;;;;;4804616;29;20703;-83
2021/10/16 19:58:35;;;;;;;11.40;4.53;;;11.40;92.50;;;;;;4790139;29;20260;-83
2021/10/16 20:01:02;;;;;;;13.98;4.38;;;11.40;92.50;;;;;;4790784;29;20614;-84
2021/10/16 20:03:32;;;;;;;15.00;4.03;;;11.40;92.50;;;;;;4791824;29;20493;-83
2021/10/16 20:06:02;;;;;;;14.57;3.83;;;11.30;92.40;;;;;;4792644;29;20047;-83
2021/10/16 20:08:30;;;;;;;14.68;4.47;;;11.30;92.50;;;;;;4792216;29;20042;-83
2021/10/16 20:10:58;;;;;;;15.52;4.40;;;11.40;92.40;;;;;;4793199;29;20454;-83
2021/10/16 20:13:27;;;;;;;11.10;3.92;;;11.30;92.30;;;;;;4792198;29;20542;-84
2021/10/16 20:15:54;;;;;;;14.40;4.13;;;11.30;92.20;;;;;;4793808;29;20055;-83
2021/10/16 20:18:23;;;;;;;12.00;3.88;;;11.30;92.30;;;;;;4792658;29;20069;-83
2021/10/16 20:20:53;;;;;;;13.80;4.60;;;11.30;92.30;;;;;;4791765;29;20447;-83
2021/10/16 20:23:23;;;;;;;19.40;5.18;;;11.30;92.30;;;;;;4792286;29;20055;-84
2021/10/16 20:25:51;;;;;;;14.15;4.57;;;11.30;92.20;;;;;;4790494;29;20038;-83
2021/10/16 20:28:19;;;;;;;11.85;4.80;;;11.30;92.10;;;;;;4792507;29;20058;-83
2021/10/16 20:30:46;;;;;;;15.80;5.20;;;11.30;92.00;;;;;;4789730;29;20488;-83
2021/10/16 20:33:14;;;;;;;12.80;4.32;;;11.30;91.90;;;;;;4792131;29;20098;-84
2021/10/16 20:35:41;;;;;;;13.57;4.35;;;11.30;92.20;;;;;;4792670;29;20055;-83
2021/10/16 20:38:09;;;;;;;11.77;4.50;;;11.30;92.10;;;;;;4784874;29;20063;-83
2021/10/16 20:40:36;;;;;;;15.27;4.50;;;11.30;92.20;;;;;;4792060;29;20066;-84
2021/10/16 20:43:03;;;;;;;11.80;4.32;;;11.30;92.10;;;;;;4792676;29;20069;-84
2021/10/16 20:45:30;;;;;;;12.77;4.20;;;11.30;92.20;;;;;;4796658;29;20066;-83
2021/10/16 20:48:13;;;;;;;17.13;4.30;;;11.30;92.10;;;;;;4792329;29;20097;-83
2021/10/16 20:50:40;;;;;;;14.82;5.78;;;11.30;91.80;;;;;;4783042;29;20180;-83
2021/10/16 20:53:08;;;;;;;13.15;4.80;;;11.30;91.80;;;;;;4791233;29;20161;-83
2021/10/16 20:55:36;;;;;;;13.45;4.50;;;11.30;91.90;;;;;;4808589;29;20508;-83
2021/10/16 20:58:02;;;;;;;12.02;4.53;;;11.30;91.60;;;;;;4791941;29;20123;-83
2021/10/16 21:00:28;;;;;;;11.05;4.43;;;11.30;91.70;;;;;;4789143;29;20080;-83
2021/10/16 21:02:55;;;;;;;17.30;5.60;;;11.30;91.50;;;;;;4809338;29;20208;-83
2021/10/16 21:05:22;;;;;;;17.20;5.18;;;11.30;91.90;;;;;;4796334;29;20047;-83
2021/10/16 21:07:49;;;;;;;14.65;4.57;;;11.30;91.40;;;;;;4794850;29;20058;-83
2021/10/16 21:10:19;;;;;;;13.32;4.70;;;11.30;91.40;;;;;;4796553;29;20054;-84
2021/10/16 21:12:49;;;;;;;14.15;4.85;;;11.30;91.50;;;;;;4791312;29;20524;-83
2021/10/16 21:15:16;;;;;;;13.52;5.03;;;11.30;91.60;;;;;;4794718;29;20050;-84
2021/10/16 21:17:44;;;;;;;15.60;4.75;;;11.30;91.60;;;;;;4795521;29;20496;-83
2021/10/16 21:20:11;;;;;;;11.45;4.50;;;11.30;91.40;;;;;;4794306;29;20108;-83
2021/10/16 21:22:36;;;;;;;11.70;4.50;;;11.30;91.80;;;;;;4791108;29;20557;-83
2021/10/16 21:25:02;;;;;;;14.30;5.00;;;11.30;91.80;;;;;;4792793;29;20043;-82
2021/10/16 21:27:28;;;;;;;12.85;4.65;;;11.30;91.70;;;;;;4790295;29;20522;-84
2021/10/16 21:29:54;;;;;;;12.60;4.68;;;11.20;91.80;;;;;;4792924;29;20085;-82
2021/10/16 21:32:19;;;;;;;13.18;4.85;;;11.20;92.00;;;;;;4792837;29;20082;-83
2021/10/16 21:34:45;;;;;;;16.58;5.45;;;11.20;91.80;;;;;;4791724;29;20054;-83
2021/10/16 21:37:11;;;;;;;14.68;5.00;;;11.20;91.70;;;;;;4793160;29;20050;-83
2021/10/16 21:39:36;;;;;;;13.52;4.40;;;11.20;91.70;;;;;;4792502;29;20062;-83
2021/10/16 21:42:03;;;;;;;14.60;4.90;;;11.20;91.70;;;;;;4792095;29;20053;-83
2021/10/16 21:44:28;;;;;;;13.85;4.75;;;11.20;91.70;;;;;;4792361;29;20111;-83
2021/10/16 21:46:54;;;;;;;10.13;4.72;;;11.20;92.00;;;;;;4792747;29;20141;-83
2021/10/16 21:49:21;;;;;;;13.20;5.25;;;11.20;91.70;;;;;;4791743;29;20054;-83
2021/10/16 21:51:47;;;;;;;9.40;4.60;;;11.20;91.90;;;;;;4791397;29;20544;-83
2021/10/16 21:54:14;;;;;;;12.02;5.13;;;11.20;92.00;;;;;;4791873;29;20054;-84
2021/10/16 21:56:41;;;;;;;13.05;4.68;;;11.20;91.90;;;;;;4791695;29;20054;-83
2021/10/16 21:59:08;;;;;;;14.13;5.40;;;11.20;92.10;;;;;;4792196;29;20401;-83
2021/10/16 22:01:33;;;;;;;15.52;5.38;;;11.20;92.00;;;;;;4792508;29;20050;-83